sensor_id;sensor_type;location;lat;lon;timestamp;P1;durP1;ratioP1;P2;durP2;ratioP2
53666;SDS011;39568;51.026;5.468;2024-01-27T00:00:33;26.48;;;7.07;;
53666;SDS011;39568;51.026;5.468;2024-01-27T00:02:59;24.27;;;6.53;;
53666;SDS011;39568;51.026;5.468;2024-01-27T00:05:26;20.70;;;5.97;;
53666;SDS011;39568;51.026;5.468;2024-01-27T00:07:54;38.50;;;6.10;;
53666;SDS011;39568;51.026;5.468;2024-01-27T00:10:21;25.02;;;6.95;;
53666;SDS011;39568;51.026;5.468;2024-01-27T00:12:47;23.55;;;6.68;;
53666;SDS011;39568;51.026;5.468;2024-01-27T00:15:13;22.45;;;6.15;;
53666;SDS011;39568;51.026;5.468;2024-01-27T00:17:40;25.63;;;5.53;;
53666;SDS011;39568;51.026;5.468;2024-01-27T00:20:07;26.67;;;6.90;;
53666;SDS011;39568;51.026;5.468;2024-01-27T00:22:33;23.50;;;6.47;;
53666;SDS011;39568;51.026;5.468;2024-01-27T00:25:01;19.83;;;5.80;;
53666;SDS011;39568;51.026;5.468;2024-01-27T00:27:27;22.83;;;8.20;;
53666;SDS011;39568;51.026;5.468;2024-01-27T00:29:54;26.60;;;8.00;;
53666;SDS011;39568;51.026;5.468;2024-01-27T00:32:20;35.13;;;8.02;;
53666;SDS011;39568;51.026;5.468;2024-01-27T00:34:47;28.55;;;7.47;;
53666;SDS011;39568;51.026;5.468;2024-01-27T00:37:13;26.33;;;7.35;;
53666;SDS011;39568;51.026;5.468;2024-01-27T00:39:39;41.15;;;10.30;;
53666;SDS011;39568;51.026;5.468;2024-01-27T00:42:08;28.73;;;6.68;;
53666;SDS011;39568;51.026;5.468;2024-01-27T00:44:34;40.60;;;7.35;;
53666;SDS011;39568;51.026;5.468;2024-01-27T00:47:00;22.05;;;6.95;;
53666;SDS011;39568;51.026;5.468;2024-01-27T00:49:27;35.78;;;8.55;;
53666;SDS011;39568;51.026;5.468;2024-01-27T00:51:53;27.02;;;7.47;;
53666;SDS011;39568;51.026;5.468;2024-01-27T00:54:20;24.95;;;7.80;;
53666;SDS011;39568;51.026;5.468;2024-01-27T00:56:46;33.13;;;8.05;;
53666;SDS011;39568;51.026;5.468;2024-01-27T00:59:15;34.78;;;7.43;;
53666;SDS011;39568;51.026;5.468;2024-01-27T01:01:41;32.20;;;8.32;;
53666;SDS011;39568;51.026;5.468;2024-01-27T01:04:07;32.22;;;8.05;;
53666;SDS011;39568;51.026;5.468;2024-01-27T01:06:34;35.13;;;10.00;;
53666;SDS011;39568;51.026;5.468;2024-01-27T01:09:00;43.65;;;12.38;;
53666;SDS011;39568;51.026;5.468;2024-01-27T01:11:27;46.90;;;15.60;;
53666;SDS011;39568;51.026;5.468;2024-01-27T01:13:53;32.30;;;12.00;;
53666;SDS011;39568;51.026;5.468;2024-01-27T01:16:21;71.88;;;14.88;;
53666;SDS011;39568;51.026;5.468;2024-01-27T01:18:48;40.15;;;10.07;;
53666;SDS011;39568;51.026;5.468;2024-01-27T01:21:14;27.80;;;9.55;;
53666;SDS011;39568;51.026;5.468;2024-01-27T01:23:41;38.22;;;9.32;;
53666;SDS011;39568;51.026;5.468;2024-01-27T01:26:07;27.75;;;9.77;;
53666;SDS011;39568;51.026;5.468;2024-01-27T01:28:34;41.55;;;9.77;;
53666;SDS011;39568;51.026;5.468;2024-01-27T01:31:00;23.42;;;7.65;;
53666;SDS011;39568;51.026;5.468;2024-01-27T01:33:28;31.77;;;9.35;;
53666;SDS011;39568;51.026;5.468;2024-01-27T01:35:55;26.02;;;7.47;;
53666;SDS011;39568;51.026;5.468;2024-01-27T01:38:21;31.67;;;8.88;;
53666;SDS011;39568;51.026;5.468;2024-01-27T01:40:47;30.55;;;7.95;;
53666;SDS011;39568;51.026;5.468;2024-01-27T01:43:14;20.75;;;7.50;;
53666;SDS011;39568;51.026;5.468;2024-01-27T01:45:40;23.65;;;7.75;;
53666;SDS011;39568;51.026;5.468;2024-01-27T01:48:07;27.00;;;7.47;;
53666;SDS011;39568;51.026;5.468;2024-01-27T01:50:35;29.42;;;6.43;;
53666;SDS011;39568;51.026;5.468;2024-01-27T01:53:02;26.15;;;7.03;;
53666;SDS011;39568;51.026;5.468;2024-01-27T01:55:28;34.35;;;7.75;;
53666;SDS011;39568;51.026;5.468;2024-01-27T01:57:55;63.63;;;13.52;;
53666;SDS011;39568;51.026;5.468;2024-01-27T02:00:21;18.67;;;6.45;;
53666;SDS011;39568;51.026;5.468;2024-01-27T02:02:48;22.48;;;6.93;;
53666;SDS011;39568;51.026;5.468;2024-01-27T02:05:14;17.25;;;6.55;;
53666;SDS011;39568;51.026;5.468;2024-01-27T02:07:42;33.35;;;6.72;;
53666;SDS011;39568;51.026;5.468;2024-01-27T02:10:12;26.40;;;6.75;;
53666;SDS011;39568;51.026;5.468;2024-01-27T02:12:37;33.30;;;8.75;;
53666;SDS011;39568;51.026;5.468;2024-01-27T02:15:04;26.17;;;7.55;;
53666;SDS011;39568;51.026;5.468;2024-01-27T02:17:31;31.25;;;7.93;;
53666;SDS011;39568;51.026;5.468;2024-01-27T02:19:57;26.17;;;7.60;;
53666;SDS011;39568;51.026;5.468;2024-01-27T02:22:25;39.65;;;9.27;;
53666;SDS011;39568;51.026;5.468;2024-01-27T02:24:53;35.72;;;7.28;;
53666;SDS011;39568;51.026;5.468;2024-01-27T02:27:19;17.98;;;6.38;;
53666;SDS011;39568;51.026;5.468;2024-01-27T02:29:46;37.80;;;7.25;;
53666;SDS011;39568;51.026;5.468;2024-01-27T02:32:12;22.63;;;6.68;;
53666;SDS011;39568;51.026;5.468;2024-01-27T02:34:39;56.88;;;7.93;;
53666;SDS011;39568;51.026;5.468;2024-01-27T02:37:05;31.38;;;8.32;;
53666;SDS011;39568;51.026;5.468;2024-01-27T02:39:31;35.13;;;8.68;;
53666;SDS011;39568;51.026;5.468;2024-01-27T02:41:59;28.10;;;7.68;;
53666;SDS011;39568;51.026;5.468;2024-01-27T02:44:26;23.98;;;7.82;;
53666;SDS011;39568;51.026;5.468;2024-01-27T02:46:52;35.92;;;7.28;;
53666;SDS011;39568;51.026;5.468;2024-01-27T02:49:19;50.35;;;9.52;;
53666;SDS011;39568;51.026;5.468;2024-01-27T02:51:45;38.25;;;8.50;;
53666;SDS011;39568;51.026;5.468;2024-01-27T02:54:13;36.03;;;9.48;;
53666;SDS011;39568;51.026;5.468;2024-01-27T02:56:39;31.23;;;7.75;;
53666;SDS011;39568;51.026;5.468;2024-01-27T02:59:07;28.65;;;7.57;;
53666;SDS011;39568;51.026;5.468;2024-01-27T03:01:33;40.20;;;7.55;;
53666;SDS011;39568;51.026;5.468;2024-01-27T03:04:00;38.55;;;8.73;;
53666;SDS011;39568;51.026;5.468;2024-01-27T03:06:26;43.72;;;8.68;;
53666;SDS011;39568;51.026;5.468;2024-01-27T03:08:53;39.17;;;8.63;;
53666;SDS011;39568;51.026;5.468;2024-01-27T03:11:19;29.33;;;9.70;;
53666;SDS011;39568;51.026;5.468;2024-01-27T03:13:46;43.58;;;10.35;;
53666;SDS011;39568;51.026;5.468;2024-01-27T03:16:13;39.22;;;9.45;;
53666;SDS011;39568;51.026;5.468;2024-01-27T03:18:42;34.20;;;8.65;;
53666;SDS011;39568;51.026;5.468;2024-01-27T03:21:08;25.50;;;9.35;;
53666;SDS011;39568;51.026;5.468;2024-01-27T03:23:35;37.88;;;9.27;;
53666;SDS011;39568;51.026;5.468;2024-01-27T03:26:02;25.70;;;7.55;;
53666;SDS011;39568;51.026;5.468;2024-01-27T03:28:28;36.40;;;8.60;;
53666;SDS011;39568;51.026;5.468;2024-01-27T03:30:55;45.50;;;10.98;;
53666;SDS011;39568;51.026;5.468;2024-01-27T03:33:22;32.72;;;7.70;;
53666;SDS011;39568;51.026;5.468;2024-01-27T03:35:49;36.28;;;8.75;;
53666;SDS011;39568;51.026;5.468;2024-01-27T03:38:15;26.60;;;8.20;;
53666;SDS011;39568;51.026;5.468;2024-01-27T03:40:42;32.30;;;7.85;;
53666;SDS011;39568;51.026;5.468;2024-01-27T03:43:08;25.73;;;8.55;;
53666;SDS011;39568;51.026;5.468;2024-01-27T03:45:35;35.58;;;8.02;;
53666;SDS011;39568;51.026;5.468;2024-01-27T03:48:01;40.22;;;7.53;;
53666;SDS011;39568;51.026;5.468;2024-01-27T03:50:29;28.23;;;9.20;;
53666;SDS011;39568;51.026;5.468;2024-01-27T03:52:55;37.90;;;9.60;;
53666;SDS011;39568;51.026;5.468;2024-01-27T03:55:22;31.10;;;7.63;;
53666;SDS011;39568;51.026;5.468;2024-01-27T03:57:48;36.65;;;8.85;;
53666;SDS011;39568;51.026;5.468;2024-01-27T04:00:15;39.03;;;8.63;;
53666;SDS011;39568;51.026;5.468;2024-01-27T04:02:41;35.22;;;8.60;;
53666;SDS011;39568;51.026;5.468;2024-01-27T04:05:07;23.45;;;7.93;;
53666;SDS011;39568;51.026;5.468;2024-01-27T04:07:35;58.88;;;9.85;;
53666;SDS011;39568;51.026;5.468;2024-01-27T04:10:02;35.20;;;9.07;;
53666;SDS011;39568;51.026;5.468;2024-01-27T04:12:29;42.05;;;8.32;;
53666;SDS011;39568;51.026;5.468;2024-01-27T04:14:56;36.88;;;12.80;;
53666;SDS011;39568;51.026;5.468;2024-01-27T04:17:23;34.55;;;9.93;;
53666;SDS011;39568;51.026;5.468;2024-01-27T04:19:49;36.83;;;9.50;;
53666;SDS011;39568;51.026;5.468;2024-01-27T04:22:15;38.03;;;8.10;;
53666;SDS011;39568;51.026;5.468;2024-01-27T04:24:43;31.15;;;8.90;;
53666;SDS011;39568;51.026;5.468;2024-01-27T04:27:10;65.63;;;20.55;;
53666;SDS011;39568;51.026;5.468;2024-01-27T04:29:36;53.28;;;12.15;;
53666;SDS011;39568;51.026;5.468;2024-01-27T04:32:03;38.55;;;11.13;;
53666;SDS011;39568;51.026;5.468;2024-01-27T04:34:29;27.48;;;9.68;;
53666;SDS011;39568;51.026;5.468;2024-01-27T04:36:57;45.67;;;15.30;;
53666;SDS011;39568;51.026;5.468;2024-01-27T04:39:23;50.67;;;12.05;;
53666;SDS011;39568;51.026;5.468;2024-01-27T04:41:51;57.38;;;10.48;;
53666;SDS011;39568;51.026;5.468;2024-01-27T04:44:17;40.00;;;10.73;;
53666;SDS011;39568;51.026;5.468;2024-01-27T04:46:45;49.90;;;15.48;;
53666;SDS011;39568;51.026;5.468;2024-01-27T04:49:11;45.00;;;15.23;;
53666;SDS011;39568;51.026;5.468;2024-01-27T04:51:38;56.72;;;21.00;;
53666;SDS011;39568;51.026;5.468;2024-01-27T04:54:04;101.40;;;60.22;;
53666;SDS011;39568;51.026;5.468;2024-01-27T04:56:32;49.67;;;14.68;;
53666;SDS011;39568;51.026;5.468;2024-01-27T04:59:00;48.20;;;13.15;;
53666;SDS011;39568;51.026;5.468;2024-01-27T05:01:26;50.30;;;13.63;;
53666;SDS011;39568;51.026;5.468;2024-01-27T05:03:53;61.70;;;14.02;;
53666;SDS011;39568;51.026;5.468;2024-01-27T05:06:19;74.75;;;31.10;;
53666;SDS011;39568;51.026;5.468;2024-01-27T05:08:46;78.63;;;30.33;;
53666;SDS011;39568;51.026;5.468;2024-01-27T05:11:12;63.00;;;17.20;;
53666;SDS011;39568;51.026;5.468;2024-01-27T05:13:39;61.95;;;18.65;;
53666;SDS011;39568;51.026;5.468;2024-01-27T05:16:07;51.03;;;16.58;;
53666;SDS011;39568;51.026;5.468;2024-01-27T05:18:34;55.88;;;16.00;;
53666;SDS011;39568;51.026;5.468;2024-01-27T05:21:00;84.38;;;21.75;;
53666;SDS011;39568;51.026;5.468;2024-01-27T05:23:27;64.32;;;26.10;;
53666;SDS011;39568;51.026;5.468;2024-01-27T05:25:53;68.68;;;17.90;;
53666;SDS011;39568;51.026;5.468;2024-01-27T05:28:20;126.85;;;57.40;;
53666;SDS011;39568;51.026;5.468;2024-01-27T05:30:46;164.30;;;98.38;;
53666;SDS011;39568;51.026;5.468;2024-01-27T05:33:14;132.13;;;67.47;;
53666;SDS011;39568;51.026;5.468;2024-01-27T05:35:41;90.00;;;28.05;;
53666;SDS011;39568;51.026;5.468;2024-01-27T05:38:08;70.65;;;21.98;;
53666;SDS011;39568;51.026;5.468;2024-01-27T05:40:34;60.95;;;18.85;;
53666;SDS011;39568;51.026;5.468;2024-01-27T05:43:00;58.55;;;15.88;;
53666;SDS011;39568;51.026;5.468;2024-01-27T05:45:27;174.75;;;97.57;;
53666;SDS011;39568;51.026;5.468;2024-01-27T05:47:54;83.90;;;33.13;;
53666;SDS011;39568;51.026;5.468;2024-01-27T05:50:22;76.22;;;24.25;;
53666;SDS011;39568;51.026;5.468;2024-01-27T05:52:48;58.63;;;19.75;;
53666;SDS011;39568;51.026;5.468;2024-01-27T05:55:14;58.70;;;18.55;;
53666;SDS011;39568;51.026;5.468;2024-01-27T05:57:42;58.65;;;17.05;;
53666;SDS011;39568;51.026;5.468;2024-01-27T06:00:09;71.05;;;19.08;;
53666;SDS011;39568;51.026;5.468;2024-01-27T06:02:35;68.15;;;23.27;;
53666;SDS011;39568;51.026;5.468;2024-01-27T06:05:02;68.40;;;21.10;;
53666;SDS011;39568;51.026;5.468;2024-01-27T06:07:30;85.82;;;35.70;;
53666;SDS011;39568;51.026;5.468;2024-01-27T06:09:56;58.67;;;16.75;;
53666;SDS011;39568;51.026;5.468;2024-01-27T06:12:23;60.83;;;18.10;;
53666;SDS011;39568;51.026;5.468;2024-01-27T06:14:50;62.83;;;18.50;;
53666;SDS011;39568;51.026;5.468;2024-01-27T06:17:16;63.47;;;17.30;;
53666;SDS011;39568;51.026;5.468;2024-01-27T06:19:43;50.90;;;15.05;;
53666;SDS011;39568;51.026;5.468;2024-01-27T06:22:10;52.60;;;17.58;;
53666;SDS011;39568;51.026;5.468;2024-01-27T06:24:42;64.85;;;17.70;;
53666;SDS011;39568;51.026;5.468;2024-01-27T06:27:09;63.70;;;15.77;;
53666;SDS011;39568;51.026;5.468;2024-01-27T06:29:36;48.95;;;17.67;;
53666;SDS011;39568;51.026;5.468;2024-01-27T06:32:03;55.42;;;18.52;;
53666;SDS011;39568;51.026;5.468;2024-01-27T06:34:29;49.28;;;17.52;;
53666;SDS011;39568;51.026;5.468;2024-01-27T06:36:55;68.95;;;27.35;;
53666;SDS011;39568;51.026;5.468;2024-01-27T06:39:22;53.55;;;19.58;;
53666;SDS011;39568;51.026;5.468;2024-01-27T06:41:50;62.40;;;17.25;;
53666;SDS011;39568;51.026;5.468;2024-01-27T06:44:16;57.42;;;16.80;;
53666;SDS011;39568;51.026;5.468;2024-01-27T06:46:43;63.47;;;17.15;;
53666;SDS011;39568;51.026;5.468;2024-01-27T06:49:10;50.30;;;14.10;;
53666;SDS011;39568;51.026;5.468;2024-01-27T06:51:38;42.35;;;14.50;;
53666;SDS011;39568;51.026;5.468;2024-01-27T06:54:04;55.80;;;16.02;;
53666;SDS011;39568;51.026;5.468;2024-01-27T06:56:31;67.28;;;15.45;;
53666;SDS011;39568;51.026;5.468;2024-01-27T06:58:58;60.25;;;15.98;;
53666;SDS011;39568;51.026;5.468;2024-01-27T07:01:25;60.00;;;16.50;;
53666;SDS011;39568;51.026;5.468;2024-01-27T07:03:51;55.13;;;16.33;;
53666;SDS011;39568;51.026;5.468;2024-01-27T07:06:18;49.97;;;16.50;;
53666;SDS011;39568;51.026;5.468;2024-01-27T07:08:44;52.38;;;16.25;;
53666;SDS011;39568;51.026;5.468;2024-01-27T07:11:11;50.65;;;15.85;;
53666;SDS011;39568;51.026;5.468;2024-01-27T07:13:37;51.72;;;13.02;;
53666;SDS011;39568;51.026;5.468;2024-01-27T07:16:06;39.25;;;10.70;;
53666;SDS011;39568;51.026;5.468;2024-01-27T07:18:32;46.25;;;12.88;;
53666;SDS011;39568;51.026;5.468;2024-01-27T07:21:00;47.40;;;12.38;;
53666;SDS011;39568;51.026;5.468;2024-01-27T07:23:27;47.85;;;12.80;;
53666;SDS011;39568;51.026;5.468;2024-01-27T07:25:53;45.67;;;12.90;;
53666;SDS011;39568;51.026;5.468;2024-01-27T07:28:20;38.25;;;10.75;;
53666;SDS011;39568;51.026;5.468;2024-01-27T07:30:46;35.25;;;10.35;;
53666;SDS011;39568;51.026;5.468;2024-01-27T07:33:14;49.40;;;10.65;;
53666;SDS011;39568;51.026;5.468;2024-01-27T07:35:40;48.35;;;13.27;;
53666;SDS011;39568;51.026;5.468;2024-01-27T07:38:07;39.67;;;9.93;;
53666;SDS011;39568;51.026;5.468;2024-01-27T07:40:33;55.60;;;12.68;;
53666;SDS011;39568;51.026;5.468;2024-01-27T07:43:00;44.53;;;11.07;;
53666;SDS011;39568;51.026;5.468;2024-01-27T07:45:26;53.97;;;13.05;;
53666;SDS011;39568;51.026;5.468;2024-01-27T07:47:52;40.53;;;14.93;;
53666;SDS011;39568;51.026;5.468;2024-01-27T07:50:20;48.72;;;14.98;;
53666;SDS011;39568;51.026;5.468;2024-01-27T07:52:47;38.75;;;12.57;;
53666;SDS011;39568;51.026;5.468;2024-01-27T07:55:14;42.50;;;11.13;;
53666;SDS011;39568;51.026;5.468;2024-01-27T07:57:42;41.75;;;10.10;;
53666;SDS011;39568;51.026;5.468;2024-01-27T08:00:09;87.75;;;36.83;;
53666;SDS011;39568;51.026;5.468;2024-01-27T08:02:35;84.03;;;32.22;;
53666;SDS011;39568;51.026;5.468;2024-01-27T08:05:02;288.33;;;142.07;;
53666;SDS011;39568;51.026;5.468;2024-01-27T08:07:30;79.00;;;37.35;;
53666;SDS011;39568;51.026;5.468;2024-01-27T08:09:57;63.78;;;24.23;;
53666;SDS011;39568;51.026;5.468;2024-01-27T08:12:23;39.47;;;10.77;;
53666;SDS011;39568;51.026;5.468;2024-01-27T08:14:50;37.38;;;11.13;;
53666;SDS011;39568;51.026;5.468;2024-01-27T08:17:16;34.08;;;9.75;;
53666;SDS011;39568;51.026;5.468;2024-01-27T08:19:42;34.80;;;7.82;;
53666;SDS011;39568;51.026;5.468;2024-01-27T08:22:09;24.52;;;7.60;;
53666;SDS011;39568;51.026;5.468;2024-01-27T08:24:37;21.55;;;7.15;;
53666;SDS011;39568;51.026;5.468;2024-01-27T08:27:03;32.65;;;6.60;;
53666;SDS011;39568;51.026;5.468;2024-01-27T08:29:30;19.75;;;6.32;;
53666;SDS011;39568;51.026;5.468;2024-01-27T08:31:57;26.83;;;7.03;;
53666;SDS011;39568;51.026;5.468;2024-01-27T08:34:23;24.17;;;7.13;;
53666;SDS011;39568;51.026;5.468;2024-01-27T08:36:49;26.13;;;6.22;;
53666;SDS011;39568;51.026;5.468;2024-01-27T08:39:16;19.98;;;7.80;;
53666;SDS011;39568;51.026;5.468;2024-01-27T08:41:44;18.08;;;6.35;;
53666;SDS011;39568;51.026;5.468;2024-01-27T08:44:10;25.65;;;7.15;;
53666;SDS011;39568;51.026;5.468;2024-01-27T08:46:37;18.55;;;5.32;;
53666;SDS011;39568;51.026;5.468;2024-01-27T08:49:03;29.02;;;5.90;;
53666;SDS011;39568;51.026;5.468;2024-01-27T08:51:30;20.83;;;5.70;;
53666;SDS011;39568;51.026;5.468;2024-01-27T08:53:56;23.83;;;6.90;;
53666;SDS011;39568;51.026;5.468;2024-01-27T08:56:22;26.63;;;6.07;;
53666;SDS011;39568;51.026;5.468;2024-01-27T08:58:50;16.27;;;5.05;;
53666;SDS011;39568;51.026;5.468;2024-01-27T09:01:17;16.35;;;5.60;;
53666;SDS011;39568;51.026;5.468;2024-01-27T09:03:44;13.93;;;4.53;;
53666;SDS011;39568;51.026;5.468;2024-01-27T09:06:11;26.83;;;4.82;;
53666;SDS011;39568;51.026;5.468;2024-01-27T09:08:37;23.17;;;4.68;;
53666;SDS011;39568;51.026;5.468;2024-01-27T09:11:04;16.38;;;4.60;;
53666;SDS011;39568;51.026;5.468;2024-01-27T09:13:30;11.80;;;5.05;;
53666;SDS011;39568;51.026;5.468;2024-01-27T09:15:59;18.25;;;4.47;;
53666;SDS011;39568;51.026;5.468;2024-01-27T09:18:25;14.27;;;5.05;;
53666;SDS011;39568;51.026;5.468;2024-01-27T09:20:52;18.13;;;4.60;;
53666;SDS011;39568;51.026;5.468;2024-01-27T09:23:18;14.27;;;4.93;;
53666;SDS011;39568;51.026;5.468;2024-01-27T09:25:45;15.90;;;5.82;;
53666;SDS011;39568;51.026;5.468;2024-01-27T09:28:11;10.38;;;4.72;;
53666;SDS011;39568;51.026;5.468;2024-01-27T09:30:39;18.88;;;5.72;;
53666;SDS011;39568;51.026;5.468;2024-01-27T09:33:07;20.90;;;4.47;;
53666;SDS011;39568;51.026;5.468;2024-01-27T09:35:33;18.95;;;5.55;;
53666;SDS011;39568;51.026;5.468;2024-01-27T09:38:00;24.23;;;7.68;;
53666;SDS011;39568;51.026;5.468;2024-01-27T09:40:26;23.90;;;7.93;;
53666;SDS011;39568;51.026;5.468;2024-01-27T09:42:53;18.25;;;5.55;;
53666;SDS011;39568;51.026;5.468;2024-01-27T09:45:21;35.70;;;12.43;;
53666;SDS011;39568;51.026;5.468;2024-01-27T09:47:48;29.92;;;9.38;;
53666;SDS011;39568;51.026;5.468;2024-01-27T09:50:17;12.95;;;7.15;;
53666;SDS011;39568;51.026;5.468;2024-01-27T09:52:43;14.40;;;3.15;;
53666;SDS011;39568;51.026;5.468;2024-01-27T09:55:10;17.88;;;4.20;;
53666;SDS011;39568;51.026;5.468;2024-01-27T09:57:36;18.80;;;5.57;;
53666;SDS011;39568;51.026;5.468;2024-01-27T10:00:05;15.15;;;4.65;;
53666;SDS011;39568;51.026;5.468;2024-01-27T10:02:32;22.30;;;6.07;;
53666;SDS011;39568;51.026;5.468;2024-01-27T10:04:59;19.88;;;5.28;;
53666;SDS011;39568;51.026;5.468;2024-01-27T10:07:27;15.73;;;4.60;;
53666;SDS011;39568;51.026;5.468;2024-01-27T10:09:54;21.20;;;6.85;;
53666;SDS011;39568;51.026;5.468;2024-01-27T10:12:20;19.40;;;5.68;;
53666;SDS011;39568;51.026;5.468;2024-01-27T10:14:48;16.60;;;4.55;;
53666;SDS011;39568;51.026;5.468;2024-01-27T10:17:20;14.63;;;4.05;;
53666;SDS011;39568;51.026;5.468;2024-01-27T10:19:46;11.00;;;3.67;;
53666;SDS011;39568;51.026;5.468;2024-01-27T10:22:13;16.48;;;3.88;;
53666;SDS011;39568;51.026;5.468;2024-01-27T10:24:40;26.02;;;7.18;;
53666;SDS011;39568;51.026;5.468;2024-01-27T10:27:07;14.05;;;4.93;;
53666;SDS011;39568;51.026;5.468;2024-01-27T10:29:33;14.85;;;4.88;;
53666;SDS011;39568;51.026;5.468;2024-01-27T10:32:06;6.50;;;4.47;;
53666;SDS011;39568;51.026;5.468;2024-01-27T10:34:33;4.72;;;2.42;;
53666;SDS011;39568;51.026;5.468;2024-01-27T10:36:59;14.95;;;4.95;;
53666;SDS011;39568;51.026;5.468;2024-01-27T10:39:26;17.77;;;4.13;;
53666;SDS011;39568;51.026;5.468;2024-01-27T10:41:54;44.05;;;18.42;;
53666;SDS011;39568;51.026;5.468;2024-01-27T10:44:21;14.90;;;3.25;;
53666;SDS011;39568;51.026;5.468;2024-01-27T10:46:48;16.02;;;3.33;;
53666;SDS011;39568;51.026;5.468;2024-01-27T10:49:15;9.45;;;3.10;;
53666;SDS011;39568;51.026;5.468;2024-01-27T10:51:43;7.15;;;3.65;;
53666;SDS011;39568;51.026;5.468;2024-01-27T10:54:11;13.23;;;3.20;;
53666;SDS011;39568;51.026;5.468;2024-01-27T10:56:39;20.77;;;2.97;;
53666;SDS011;39568;51.026;5.468;2024-01-27T10:59:07;15.57;;;3.72;;
53666;SDS011;39568;51.026;5.468;2024-01-27T11:01:35;13.32;;;2.95;;
53666;SDS011;39568;51.026;5.468;2024-01-27T11:04:03;10.05;;;3.92;;
53666;SDS011;39568;51.026;5.468;2024-01-27T11:06:31;7.70;;;2.97;;
53666;SDS011;39568;51.026;5.468;2024-01-27T11:09:00;16.90;;;3.65;;
53666;SDS011;39568;51.026;5.468;2024-01-27T11:11:28;10.10;;;2.38;;
53666;SDS011;39568;51.026;5.468;2024-01-27T11:13:55;10.98;;;2.42;;
53666;SDS011;39568;51.026;5.468;2024-01-27T11:16:23;13.75;;;3.00;;
53666;SDS011;39568;51.026;5.468;2024-01-27T11:18:49;11.43;;;3.78;;
53666;SDS011;39568;51.026;5.468;2024-01-27T11:21:17;7.53;;;2.72;;
53666;SDS011;39568;51.026;5.468;2024-01-27T11:23:43;15.13;;;2.67;;
53666;SDS011;39568;51.026;5.468;2024-01-27T11:26:16;14.10;;;2.42;;
53666;SDS011;39568;51.026;5.468;2024-01-27T11:28:43;9.40;;;2.55;;
53666;SDS011;39568;51.026;5.468;2024-01-27T11:31:09;9.73;;;2.38;;
53666;SDS011;39568;51.026;5.468;2024-01-27T11:33:44;16.75;;;4.38;;
53666;SDS011;39568;51.026;5.468;2024-01-27T11:36:18;13.85;;;3.55;;
53666;SDS011;39568;51.026;5.468;2024-01-27T11:38:44;8.98;;;2.78;;
53666;SDS011;39568;51.026;5.468;2024-01-27T11:41:11;5.18;;;2.15;;
53666;SDS011;39568;51.026;5.468;2024-01-27T11:43:37;12.50;;;3.00;;
53666;SDS011;39568;51.026;5.468;2024-01-27T11:46:05;15.00;;;3.53;;
53666;SDS011;39568;51.026;5.468;2024-01-27T11:48:31;10.60;;;2.38;;
53666;SDS011;39568;51.026;5.468;2024-01-27T11:51:05;10.77;;;3.10;;
53666;SDS011;39568;51.026;5.468;2024-01-27T11:53:33;16.40;;;3.67;;
53666;SDS011;39568;51.026;5.468;2024-01-27T11:55:59;12.25;;;3.08;;
53666;SDS011;39568;51.026;5.468;2024-01-27T11:58:26;14.48;;;4.07;;
53666;SDS011;39568;51.026;5.468;2024-01-27T12:00:53;9.68;;;2.72;;
53666;SDS011;39568;51.026;5.468;2024-01-27T12:03:20;8.60;;;2.42;;
53666;SDS011;39568;51.026;5.468;2024-01-27T12:05:46;4.32;;;2.22;;
53666;SDS011;39568;51.026;5.468;2024-01-27T12:08:15;6.55;;;2.25;;
53666;SDS011;39568;51.026;5.468;2024-01-27T12:10:42;11.52;;;3.15;;
53666;SDS011;39568;51.026;5.468;2024-01-27T12:13:08;7.35;;;2.20;;
53666;SDS011;39568;51.026;5.468;2024-01-27T12:15:35;21.35;;;2.83;;
53666;SDS011;39568;51.026;5.468;2024-01-27T12:18:01;5.07;;;1.40;;
53666;SDS011;39568;51.026;5.468;2024-01-27T12:20:30;13.32;;;2.83;;
53666;SDS011;39568;51.026;5.468;2024-01-27T12:23:01;6.13;;;2.53;;
53666;SDS011;39568;51.026;5.468;2024-01-27T12:25:29;9.63;;;3.45;;
53666;SDS011;39568;51.026;5.468;2024-01-27T12:27:56;9.10;;;2.85;;
53666;SDS011;39568;51.026;5.468;2024-01-27T12:30:26;12.27;;;2.08;;
53666;SDS011;39568;51.026;5.468;2024-01-27T12:32:52;8.43;;;2.38;;
53666;SDS011;39568;51.026;5.468;2024-01-27T12:35:19;8.93;;;2.45;;
53666;SDS011;39568;51.026;5.468;2024-01-27T12:37:45;13.68;;;1.98;;
53666;SDS011;39568;51.026;5.468;2024-01-27T12:40:19;8.60;;;2.35;;
53666;SDS011;39568;51.026;5.468;2024-01-27T12:42:47;12.20;;;3.03;;
53666;SDS011;39568;51.026;5.468;2024-01-27T12:45:13;8.57;;;2.00;;
53666;SDS011;39568;51.026;5.468;2024-01-27T12:47:40;11.00;;;1.80;;
53666;SDS011;39568;51.026;5.468;2024-01-27T12:50:07;6.57;;;1.73;;
53666;SDS011;39568;51.026;5.468;2024-01-27T12:52:34;18.70;;;2.65;;
53666;SDS011;39568;51.026;5.468;2024-01-27T12:55:00;6.47;;;1.77;;
53666;SDS011;39568;51.026;5.468;2024-01-27T12:57:26;7.00;;;1.73;;
53666;SDS011;39568;51.026;5.468;2024-01-27T12:59:54;5.72;;;2.03;;
53666;SDS011;39568;51.026;5.468;2024-01-27T13:02:21;11.93;;;1.90;;
53666;SDS011;39568;51.026;5.468;2024-01-27T13:04:47;2.30;;;1.17;;
53666;SDS011;39568;51.026;5.468;2024-01-27T13:07:14;7.05;;;1.45;;
53666;SDS011;39568;51.026;5.468;2024-01-27T13:09:40;4.55;;;2.75;;
53666;SDS011;39568;51.026;5.468;2024-01-27T13:12:07;15.40;;;3.08;;
53666;SDS011;39568;51.026;5.468;2024-01-27T13:14:33;6.25;;;1.50;;
53666;SDS011;39568;51.026;5.468;2024-01-27T13:17:01;6.53;;;1.88;;
53666;SDS011;39568;51.026;5.468;2024-01-27T13:19:27;17.85;;;6.88;;
53666;SDS011;39568;51.026;5.468;2024-01-27T13:21:54;11.07;;;2.45;;
53666;SDS011;39568;51.026;5.468;2024-01-27T13:24:20;11.15;;;3.85;;
53666;SDS011;39568;51.026;5.468;2024-01-27T13:26:47;9.60;;;3.40;;
53666;SDS011;39568;51.026;5.468;2024-01-27T13:29:14;9.15;;;3.95;;
53666;SDS011;39568;51.026;5.468;2024-01-27T13:31:40;22.08;;;6.80;;
53666;SDS011;39568;51.026;5.468;2024-01-27T13:34:08;4.50;;;1.98;;
53666;SDS011;39568;51.026;5.468;2024-01-27T13:36:35;9.40;;;2.10;;
53666;SDS011;39568;51.026;5.468;2024-01-27T13:39:01;5.50;;;2.20;;
53666;SDS011;39568;51.026;5.468;2024-01-27T13:41:27;9.95;;;3.05;;
53666;SDS011;39568;51.026;5.468;2024-01-27T13:43:54;6.00;;;1.70;;
53666;SDS011;39568;51.026;5.468;2024-01-27T13:46:20;5.28;;;2.33;;
53666;SDS011;39568;51.026;5.468;2024-01-27T13:48:47;10.98;;;2.50;;
53666;SDS011;39568;51.026;5.468;2024-01-27T13:51:15;9.02;;;1.77;;
53666;SDS011;39568;51.026;5.468;2024-01-27T13:53:41;10.88;;;2.63;;
53666;SDS011;39568;51.026;5.468;2024-01-27T13:56:08;10.65;;;2.47;;
53666;SDS011;39568;51.026;5.468;2024-01-27T13:58:34;6.68;;;2.00;;
53666;SDS011;39568;51.026;5.468;2024-01-27T14:01:01;10.15;;;2.63;;
53666;SDS011;39568;51.026;5.468;2024-01-27T14:03:28;5.60;;;1.75;;
53666;SDS011;39568;51.026;5.468;2024-01-27T14:05:55;16.70;;;1.98;;
53666;SDS011;39568;51.026;5.468;2024-01-27T14:08:23;10.80;;;2.10;;
53666;SDS011;39568;51.026;5.468;2024-01-27T14:10:49;6.40;;;2.13;;
53666;SDS011;39568;51.026;5.468;2024-01-27T14:13:17;4.90;;;2.28;;
53666;SDS011;39568;51.026;5.468;2024-01-27T14:15:44;4.80;;;1.50;;
53666;SDS011;39568;51.026;5.468;2024-01-27T14:18:10;13.27;;;2.45;;
53666;SDS011;39568;51.026;5.468;2024-01-27T14:20:45;8.43;;;2.70;;
53666;SDS011;39568;51.026;5.468;2024-01-27T14:23:12;8.73;;;2.10;;
53666;SDS011;39568;51.026;5.468;2024-01-27T14:25:39;14.73;;;3.08;;
53666;SDS011;39568;51.026;5.468;2024-01-27T14:28:06;10.05;;;2.22;;
53666;SDS011;39568;51.026;5.468;2024-01-27T14:30:34;14.05;;;2.63;;